sensor_id;sensor_type;location;lat;lon;timestamp;P1;durP1;ratioP1;P2;durP2;ratioP2
34236;SDS011;20501;45.956;13.632;2023-04-24T00:01:21;10.77;;;7.68;;
34236;SDS011;20501;45.956;13.632;2023-04-24T00:03:46;9.73;;;5.78;;
34236;SDS011;20501;45.956;13.632;2023-04-24T00:06:12;12.73;;;8.10;;
34236;SDS011;20501;45.956;13.632;2023-04-24T00:08:37;7.88;;;6.18;;
34236;SDS011;20501;45.956;13.632;2023-04-24T00:11:03;11.95;;;7.80;;
34236;SDS011;20501;45.956;13.632;2023-04-24T00:13:28;8.68;;;5.97;;
34236;SDS011;20501;45.956;13.632;2023-04-24T00:15:54;7.50;;;5.07;;
34236;SDS011;20501;45.956;13.632;2023-04-24T00:18:20;8.23;;;6.57;;
34236;SDS011;20501;45.956;13.632;2023-04-24T00:20:46;12.63;;;7.93;;
34236;SDS011;20501;45.956;13.632;2023-04-24T00:23:11;7.78;;;5.40;;
34236;SDS011;20501;45.956;13.632;2023-04-24T00:25:37;6.30;;;5.13;;
34236;SDS011;20501;45.956;13.632;2023-04-24T00:28:03;12.00;;;7.63;;
34236;SDS011;20501;45.956;13.632;2023-04-24T00:30:29;7.93;;;5.60;;
34236;SDS011;20501;45.956;13.632;2023-04-24T00:32:54;13.00;;;8.10;;
34236;SDS011;20501;45.956;13.632;2023-04-24T00:35:20;10.63;;;7.53;;
34236;SDS011;20501;45.956;13.632;2023-04-24T00:37:45;13.52;;;8.43;;
34236;SDS011;20501;45.956;13.632;2023-04-24T00:40:11;6.68;;;5.65;;
34236;SDS011;20501;45.956;13.632;2023-04-24T00:42:37;16.13;;;9.05;;
34236;SDS011;20501;45.956;13.632;2023-04-24T00:45:03;13.43;;;8.57;;
34236;SDS011;20501;45.956;13.632;2023-04-24T00:47:30;10.15;;;6.22;;
34236;SDS011;20501;45.956;13.632;2023-04-24T00:49:56;10.57;;;6.37;;
34236;SDS011;20501;45.956;13.632;2023-04-24T00:52:21;13.35;;;8.00;;
34236;SDS011;20501;45.956;13.632;2023-04-24T00:54:49;15.45;;;7.50;;
34236;SDS011;20501;45.956;13.632;2023-04-24T00:57:15;12.15;;;7.43;;
34236;SDS011;20501;45.956;13.632;2023-04-24T00:59:41;8.80;;;6.32;;
34236;SDS011;20501;45.956;13.632;2023-04-24T01:02:07;12.02;;;7.65;;
34236;SDS011;20501;45.956;13.632;2023-04-24T01:04:35;6.78;;;5.85;;
34236;SDS011;20501;45.956;13.632;2023-04-24T01:07:01;11.57;;;8.13;;
34236;SDS011;20501;45.956;13.632;2023-04-24T01:09:26;13.38;;;7.28;;
34236;SDS011;20501;45.956;13.632;2023-04-24T01:11:52;11.98;;;8.57;;
34236;SDS011;20501;45.956;13.632;2023-04-24T01:14:19;13.50;;;7.65;;
34236;SDS011;20501;45.956;13.632;2023-04-24T01:16:45;15.32;;;7.80;;
34236;SDS011;20501;45.956;13.632;2023-04-24T01:19:10;9.30;;;6.53;;
34236;SDS011;20501;45.956;13.632;2023-04-24T01:21:37;10.85;;;7.15;;
34236;SDS011;20501;45.956;13.632;2023-04-24T01:24:04;8.88;;;6.78;;
34236;SDS011;20501;45.956;13.632;2023-04-24T01:26:30;12.68;;;7.47;;
34236;SDS011;20501;45.956;13.632;2023-04-24T01:28:56;9.25;;;7.10;;
34236;SDS011;20501;45.956;13.632;2023-04-24T01:31:22;10.65;;;6.47;;
34236;SDS011;20501;45.956;13.632;2023-04-24T01:33:47;10.55;;;6.82;;
34236;SDS011;20501;45.956;13.632;2023-04-24T01:36:14;10.23;;;6.78;;
34236;SDS011;20501;45.956;13.632;2023-04-24T01:41:06;10.05;;;6.07;;
34236;SDS011;20501;45.956;13.632;2023-04-24T01:43:32;10.73;;;6.78;;
34236;SDS011;20501;45.956;13.632;2023-04-24T01:45:57;9.02;;;6.55;;
34236;SDS011;20501;45.956;13.632;2023-04-24T01:48:23;9.40;;;6.75;;
34236;SDS011;20501;45.956;13.632;2023-04-24T01:50:48;8.77;;;6.15;;
34236;SDS011;20501;45.956;13.632;2023-04-24T01:53:14;7.10;;;5.78;;
34236;SDS011;20501;45.956;13.632;2023-04-24T01:55:40;12.68;;;6.50;;
34236;SDS011;20501;45.956;13.632;2023-04-24T01:58:06;10.77;;;6.70;;
34236;SDS011;20501;45.956;13.632;2023-04-24T02:00:31;10.65;;;6.45;;
34236;SDS011;20501;45.956;13.632;2023-04-24T02:02:57;6.82;;;5.53;;
34236;SDS011;20501;45.956;13.632;2023-04-24T02:05:22;9.80;;;5.43;;
34236;SDS011;20501;45.956;13.632;2023-04-24T02:07:48;9.27;;;6.63;;
34236;SDS011;20501;45.956;13.632;2023-04-24T02:10:13;9.65;;;6.28;;
34236;SDS011;20501;45.956;13.632;2023-04-24T02:12:38;8.55;;;5.55;;
34236;SDS011;20501;45.956;13.632;2023-04-24T02:15:04;9.20;;;6.60;;
34236;SDS011;20501;45.956;13.632;2023-04-24T02:17:30;9.25;;;6.13;;
34236;SDS011;20501;45.956;13.632;2023-04-24T02:19:55;10.75;;;7.30;;
34236;SDS011;20501;45.956;13.632;2023-04-24T02:22:21;9.27;;;6.32;;
34236;SDS011;20501;45.956;13.632;2023-04-24T02:24:46;8.27;;;5.55;;
34236;SDS011;20501;45.956;13.632;2023-04-24T02:27:12;6.28;;;5.40;;
34236;SDS011;20501;45.956;13.632;2023-04-24T02:29:37;8.70;;;5.95;;
34236;SDS011;20501;45.956;13.632;2023-04-24T02:32:03;8.68;;;6.63;;
34236;SDS011;20501;45.956;13.632;2023-04-24T02:34:28;13.02;;;8.65;;
34236;SDS011;20501;45.956;13.632;2023-04-24T02:36:54;9.85;;;6.45;;
34236;SDS011;20501;45.956;13.632;2023-04-24T02:39:19;7.35;;;5.45;;
34236;SDS011;20501;45.956;13.632;2023-04-24T02:41:45;8.80;;;7.05;;
34236;SDS011;20501;45.956;13.632;2023-04-24T02:44:10;14.27;;;7.85;;
34236;SDS011;20501;45.956;13.632;2023-04-24T02:46:36;7.35;;;5.68;;
34236;SDS011;20501;45.956;13.632;2023-04-24T02:49:01;14.32;;;7.95;;
34236;SDS011;20501;45.956;13.632;2023-04-24T02:51:27;9.48;;;7.30;;
34236;SDS011;20501;45.956;13.632;2023-04-24T02:53:53;11.63;;;7.47;;
34236;SDS011;20501;45.956;13.632;2023-04-24T02:56:18;9.68;;;6.25;;
34236;SDS011;20501;45.956;13.632;2023-04-24T02:58:44;9.73;;;6.43;;
34236;SDS011;20501;45.956;13.632;2023-04-24T03:01:09;8.75;;;6.40;;
34236;SDS011;20501;45.956;13.632;2023-04-24T03:03:35;11.75;;;5.90;;
34236;SDS011;20501;45.956;13.632;2023-04-24T03:06:01;11.77;;;6.63;;
34236;SDS011;20501;45.956;13.632;2023-04-24T03:08:26;11.20;;;5.95;;
34236;SDS011;20501;45.956;13.632;2023-04-24T03:10:52;9.25;;;5.95;;
34236;SDS011;20501;45.956;13.632;2023-04-24T03:13:17;11.00;;;6.68;;
34236;SDS011;20501;45.956;13.632;2023-04-24T03:15:43;9.52;;;5.35;;
34236;SDS011;20501;45.956;13.632;2023-04-24T03:18:09;9.25;;;5.93;;
34236;SDS011;20501;45.956;13.632;2023-04-24T03:20:35;9.10;;;5.28;;
34236;SDS011;20501;45.956;13.632;2023-04-24T03:23:01;10.18;;;5.95;;
34236;SDS011;20501;45.956;13.632;2023-04-24T03:25:27;8.60;;;5.47;;
34236;SDS011;20501;45.956;13.632;2023-04-24T03:27:53;9.60;;;6.65;;
34236;SDS011;20501;45.956;13.632;2023-04-24T03:30:19;12.13;;;6.30;;
34236;SDS011;20501;45.956;13.632;2023-04-24T03:32:45;10.40;;;6.18;;
34236;SDS011;20501;45.956;13.632;2023-04-24T03:35:10;10.18;;;6.45;;
34236;SDS011;20501;45.956;13.632;2023-04-24T03:37:36;10.02;;;6.80;;
34236;SDS011;20501;45.956;13.632;2023-04-24T03:40:01;10.60;;;6.63;;
34236;SDS011;20501;45.956;13.632;2023-04-24T03:42:27;10.73;;;6.13;;
34236;SDS011;20501;45.956;13.632;2023-04-24T03:44:53;8.45;;;5.63;;
34236;SDS011;20501;45.956;13.632;2023-04-24T03:47:18;10.90;;;6.47;;
34236;SDS011;20501;45.956;13.632;2023-04-24T03:49:44;10.77;;;5.32;;
34236;SDS011;20501;45.956;13.632;2023-04-24T03:52:09;8.77;;;5.80;;
34236;SDS011;20501;45.956;13.632;2023-04-24T03:54:35;10.05;;;5.32;;
34236;SDS011;20501;45.956;13.632;2023-04-24T03:57:00;7.85;;;5.43;;
34236;SDS011;20501;45.956;13.632;2023-04-24T03:59:26;9.70;;;5.70;;
34236;SDS011;20501;45.956;13.632;2023-04-24T04:01:51;11.20;;;5.88;;
34236;SDS011;20501;45.956;13.632;2023-04-24T04:04:17;7.78;;;4.80;;
34236;SDS011;20501;45.956;13.632;2023-04-24T04:06:42;8.63;;;4.90;;
34236;SDS011;20501;45.956;13.632;2023-04-24T04:09:09;10.95;;;5.32;;
34236;SDS011;20501;45.956;13.632;2023-04-24T04:11:35;9.52;;;5.10;;
34236;SDS011;20501;45.956;13.632;2023-04-24T04:14:01;8.38;;;4.75;;
34236;SDS011;20501;45.956;13.632;2023-04-24T04:16:26;7.80;;;5.20;;
34236;SDS011;20501;45.956;13.632;2023-04-24T04:18:52;7.10;;;4.70;;
34236;SDS011;20501;45.956;13.632;2023-04-24T04:21:17;7.53;;;5.50;;
34236;SDS011;20501;45.956;13.632;2023-04-24T04:23:42;6.38;;;4.22;;
34236;SDS011;20501;45.956;13.632;2023-04-24T04:26:08;12.02;;;5.35;;
34236;SDS011;20501;45.956;13.632;2023-04-24T04:28:34;9.85;;;4.68;;
34236;SDS011;20501;45.956;13.632;2023-04-24T04:30:59;7.25;;;4.45;;
34236;SDS011;20501;45.956;13.632;2023-04-24T04:33:25;7.40;;;4.50;;
34236;SDS011;20501;45.956;13.632;2023-04-24T04:35:51;8.82;;;5.18;;
34236;SDS011;20501;45.956;13.632;2023-04-24T04:38:18;10.90;;;6.03;;
34236;SDS011;20501;45.956;13.632;2023-04-24T04:40:44;7.18;;;5.43;;
34236;SDS011;20501;45.956;13.632;2023-04-24T04:43:10;8.73;;;5.30;;
34236;SDS011;20501;45.956;13.632;2023-04-24T04:45:36;9.32;;;5.90;;
34236;SDS011;20501;45.956;13.632;2023-04-24T04:48:03;10.00;;;5.45;;
34236;SDS011;20501;45.956;13.632;2023-04-24T04:50:29;9.45;;;5.57;;
34236;SDS011;20501;45.956;13.632;2023-04-24T04:52:55;8.13;;;4.35;;
34236;SDS011;20501;45.956;13.632;2023-04-24T04:55:20;9.07;;;5.03;;
34236;SDS011;20501;45.956;13.632;2023-04-24T04:57:46;6.32;;;4.45;;
34236;SDS011;20501;45.956;13.632;2023-04-24T05:00:11;6.13;;;4.25;;
34236;SDS011;20501;45.956;13.632;2023-04-24T05:02:38;8.77;;;4.32;;
34236;SDS011;20501;45.956;13.632;2023-04-24T05:05:04;8.25;;;4.15;;
34236;SDS011;20501;45.956;13.632;2023-04-24T05:07:30;5.82;;;4.47;;
34236;SDS011;20501;45.956;13.632;2023-04-24T05:09:56;8.35;;;4.97;;
34236;SDS011;20501;45.956;13.632;2023-04-24T05:12:21;7.82;;;5.30;;
34236;SDS011;20501;45.956;13.632;2023-04-24T05:14:46;8.07;;;5.25;;
34236;SDS011;20501;45.956;13.632;2023-04-24T05:17:12;10.65;;;5.30;;
34236;SDS011;20501;45.956;13.632;2023-04-24T05:19:37;10.95;;;6.75;;
34236;SDS011;20501;45.956;13.632;2023-04-24T05:22:03;11.38;;;5.65;;
34236;SDS011;20501;45.956;13.632;2023-04-24T05:24:31;10.40;;;6.07;;
34236;SDS011;20501;45.956;13.632;2023-04-24T05:26:57;15.75;;;6.78;;
34236;SDS011;20501;45.956;13.632;2023-04-24T05:29:23;11.30;;;5.05;;
34236;SDS011;20501;45.956;13.632;2023-04-24T05:31:49;7.40;;;4.53;;
34236;SDS011;20501;45.956;13.632;2023-04-24T05:34:15;7.78;;;5.28;;
34236;SDS011;20501;45.956;13.632;2023-04-24T05:36:41;8.60;;;4.50;;
34236;SDS011;20501;45.956;13.632;2023-04-24T05:39:07;6.05;;;4.65;;
34236;SDS011;20501;45.956;13.632;2023-04-24T05:41:33;8.75;;;5.13;;
34236;SDS011;20501;45.956;13.632;2023-04-24T05:43:59;10.52;;;5.75;;
34236;SDS011;20501;45.956;13.632;2023-04-24T05:46:24;7.97;;;5.55;;
34236;SDS011;20501;45.956;13.632;2023-04-24T05:48:50;9.65;;;6.25;;
34236;SDS011;20501;45.956;13.632;2023-04-24T05:51:16;10.85;;;5.20;;
34236;SDS011;20501;45.956;13.632;2023-04-24T05:53:41;7.38;;;4.95;;
34236;SDS011;20501;45.956;13.632;2023-04-24T05:56:06;7.72;;;5.15;;
34236;SDS011;20501;45.956;13.632;2023-04-24T05:58:32;15.82;;;9.38;;
34236;SDS011;20501;45.956;13.632;2023-04-24T06:00:57;16.35;;;7.43;;
34236;SDS011;20501;45.956;13.632;2023-04-24T06:03:24;11.32;;;6.07;;
34236;SDS011;20501;45.956;13.632;2023-04-24T06:05:50;11.63;;;6.90;;
34236;SDS011;20501;45.956;13.632;2023-04-24T06:08:16;23.57;;;9.40;;
34236;SDS011;20501;45.956;13.632;2023-04-24T06:10:41;14.68;;;7.63;;
34236;SDS011;20501;45.956;13.632;2023-04-24T06:13:07;13.75;;;8.55;;
34236;SDS011;20501;45.956;13.632;2023-04-24T06:15:32;14.15;;;7.65;;
34236;SDS011;20501;45.956;13.632;2023-04-24T06:17:58;8.43;;;5.93;;
34236;SDS011;20501;45.956;13.632;2023-04-24T06:20:24;12.40;;;6.60;;
34236;SDS011;20501;45.956;13.632;2023-04-24T06:22:49;13.38;;;7.97;;
34236;SDS011;20501;45.956;13.632;2023-04-24T06:25:15;10.75;;;6.80;;
34236;SDS011;20501;45.956;13.632;2023-04-24T06:27:41;14.48;;;6.80;;
34236;SDS011;20501;45.956;13.632;2023-04-24T06:30:06;13.27;;;7.00;;
34236;SDS011;20501;45.956;13.632;2023-04-24T06:32:32;11.77;;;7.00;;
34236;SDS011;20501;45.956;13.632;2023-04-24T06:34:57;33.22;;;18.90;;
34236;SDS011;20501;45.956;13.632;2023-04-24T06:37:23;20.42;;;7.55;;
34236;SDS011;20501;45.956;13.632;2023-04-24T06:39:49;9.38;;;5.80;;
34236;SDS011;20501;45.956;13.632;2023-04-24T06:42:14;10.27;;;5.65;;
34236;SDS011;20501;45.956;13.632;2023-04-24T06:44:40;17.45;;;8.98;;
34236;SDS011;20501;45.956;13.632;2023-04-24T06:47:09;11.75;;;6.40;;
34236;SDS011;20501;45.956;13.632;2023-04-24T06:49:36;8.80;;;5.82;;
34236;SDS011;20501;45.956;13.632;2023-04-24T06:52:02;14.23;;;7.28;;
34236;SDS011;20501;45.956;13.632;2023-04-24T06:54:28;13.88;;;7.10;;
34236;SDS011;20501;45.956;13.632;2023-04-24T06:56:54;14.10;;;7.40;;
34236;SDS011;20501;45.956;13.632;2023-04-24T06:59:20;11.02;;;6.50;;
34236;SDS011;20501;45.956;13.632;2023-04-24T07:01:45;14.13;;;6.55;;
34236;SDS011;20501;45.956;13.632;2023-04-24T07:04:11;11.57;;;6.38;;
34236;SDS011;20501;45.956;13.632;2023-04-24T07:06:38;14.55;;;8.35;;
34236;SDS011;20501;45.956;13.632;2023-04-24T07:09:04;10.43;;;6.23;;
34236;SDS011;20501;45.956;13.632;2023-04-24T07:11:29;9.20;;;5.78;;
34236;SDS011;20501;45.956;13.632;2023-04-24T07:13:55;14.90;;;7.80;;
34236;SDS011;20501;45.956;13.632;2023-04-24T07:16:20;15.38;;;7.18;;
34236;SDS011;20501;45.956;13.632;2023-04-24T07:18:46;14.18;;;8.02;;
34236;SDS011;20501;45.956;13.632;2023-04-24T07:21:11;19.05;;;8.15;;
34236;SDS011;20501;45.956;13.632;2023-04-24T07:23:37;12.90;;;7.68;;
34236;SDS011;20501;45.956;13.632;2023-04-24T07:26:02;18.83;;;7.95;;
34236;SDS011;20501;45.956;13.632;2023-04-24T07:28:28;16.35;;;8.30;;
34236;SDS011;20501;45.956;13.632;2023-04-24T07:30:56;14.02;;;8.93;;
34236;SDS011;20501;45.956;13.632;2023-04-24T07:33:22;15.52;;;9.02;;
34236;SDS011;20501;45.956;13.632;2023-04-24T07:35:48;15.80;;;8.57;;
34236;SDS011;20501;45.956;13.632;2023-04-24T07:38:13;13.68;;;8.90;;
34236;SDS011;20501;45.956;13.632;2023-04-24T07:40:38;12.65;;;8.05;;
34236;SDS011;20501;45.956;13.632;2023-04-24T07:43:04;16.45;;;8.88;;
34236;SDS011;20501;45.956;13.632;2023-04-24T07:45:29;16.35;;;8.98;;
34236;SDS011;20501;45.956;13.632;2023-04-24T07:47:56;18.23;;;9.20;;
34236;SDS011;20501;45.956;13.632;2023-04-24T07:50:21;16.08;;;7.78;;
34236;SDS011;20501;45.956;13.632;2023-04-24T07:52:47;16.00;;;8.38;;
34236;SDS011;20501;45.956;13.632;2023-04-24T07:55:13;18.00;;;8.88;;
34236;SDS011;20501;45.956;13.632;2023-04-24T07:57:38;16.45;;;7.03;;
34236;SDS011;20501;45.956;13.632;2023-04-24T08:00:04;15.18;;;8.57;;
34236;SDS011;20501;45.956;13.632;2023-04-24T08:02:30;15.65;;;8.55;;
34236;SDS011;20501;45.956;13.632;2023-04-24T08:04:56;15.55;;;8.85;;
34236;SDS011;20501;45.956;13.632;2023-04-24T08:07:23;17.35;;;8.48;;
34236;SDS011;20501;45.956;13.632;2023-04-24T08:09:49;15.10;;;7.88;;
34236;SDS011;20501;45.956;13.632;2023-04-24T08:12:14;20.45;;;7.18;;
34236;SDS011;20501;45.956;13.632;2023-04-24T08:14:40;14.73;;;7.80;;
34236;SDS011;20501;45.956;13.632;2023-04-24T08:17:05;13.48;;;8.00;;
34236;SDS011;20501;45.956;13.632;2023-04-24T08:19:30;15.57;;;7.65;;
34236;SDS011;20501;45.956;13.632;2023-04-24T08:21:56;12.55;;;7.55;;
34236;SDS011;20501;45.956;13.632;2023-04-24T08:24:22;19.67;;;8.95;;
34236;SDS011;20501;45.956;13.632;2023-04-24T08:26:48;17.23;;;7.75;;
34236;SDS011;20501;45.956;13.632;2023-04-24T08:29:16;17.10;;;7.82;;
34236;SDS011;20501;45.956;13.632;2023-04-24T08:31:42;13.73;;;7.80;;
34236;SDS011;20501;45.956;13.632;2023-04-24T08:34:07;17.08;;;7.03;;
34236;SDS011;20501;45.956;13.632;2023-04-24T08:36:33;12.40;;;5.43;;
34236;SDS011;20501;45.956;13.632;2023-04-24T08:38:58;12.32;;;7.00;;
34236;SDS011;20501;45.956;13.632;2023-04-24T08:41:24;10.85;;;6.53;;
34236;SDS011;20501;45.956;13.632;2023-04-24T08:43:51;10.55;;;5.57;;
34236;SDS011;20501;45.956;13.632;2023-04-24T08:46:16;11.98;;;6.93;;
34236;SDS011;20501;45.956;13.632;2023-04-24T08:48:44;9.18;;;5.47;;
34236;SDS011;20501;45.956;13.632;2023-04-24T08:51:10;39.42;;;17.90;;
34236;SDS011;20501;45.956;13.632;2023-04-24T08:53:36;10.95;;;6.25;;
34236;SDS011;20501;45.956;13.632;2023-04-24T08:56:02;13.30;;;6.47;;
34236;SDS011;20501;45.956;13.632;2023-04-24T08:58:28;14.35;;;6.80;;
34236;SDS011;20501;45.956;13.632;2023-04-24T09:00:54;12.07;;;6.30;;
34236;SDS011;20501;45.956;13.632;2023-04-24T09:03:20;15.18;;;8.32;;
34236;SDS011;20501;45.956;13.632;2023-04-24T09:05:46;14.02;;;6.82;;
34236;SDS011;20501;45.956;13.632;2023-04-24T09:08:28;15.45;;;7.80;;
34236;SDS011;20501;45.956;13.632;2023-04-24T09:10:54;10.80;;;6.97;;
34236;SDS011;20501;45.956;13.632;2023-04-24T09:13:20;12.00;;;7.15;;
34236;SDS011;20501;45.956;13.632;2023-04-24T09:15:46;10.90;;;6.85;;
34236;SDS011;20501;45.956;13.632;2023-04-24T09:18:11;8.45;;;5.53;;
34236;SDS011;20501;45.956;13.632;2023-04-24T09:25:57;12.43;;;6.53;;
34236;SDS011;20501;45.956;13.632;2023-04-24T09:28:25;16.35;;;7.35;;
34236;SDS011;20501;45.956;13.632;2023-04-24T09:33:38;13.80;;;7.93;;
34236;SDS011;20501;45.956;13.632;2023-04-24T09:36:04;11.23;;;5.95;;
34236;SDS011;20501;45.956;13.632;2023-04-24T09:38:37;10.85;;;5.80;;
34236;SDS011;20501;45.956;13.632;2023-04-24T09:41:07;12.23;;;6.25;;
34236;SDS011;20501;45.956;13.632;2023-04-24T09:43:33;15.40;;;7.57;;
34236;SDS011;20501;45.956;13.632;2023-04-24T09:46:03;11.35;;;5.43;;
34236;SDS011;20501;45.956;13.632;2023-04-24T09:48:34;13.88;;;6.53;;
34236;SDS011;20501;45.956;13.632;2023-04-24T09:51:01;10.40;;;5.93;;
34236;SDS011;20501;45.956;13.632;2023-04-24T09:53:28;9.60;;;6.13;;
34236;SDS011;20501;45.956;13.632;2023-04-24T09:55:54;13.43;;;6.78;;
34236;SDS011;20501;45.956;13.632;2023-04-24T09:58:26;14.07;;;6.13;;
34236;SDS011;20501;45.956;13.632;2023-04-24T10:00:53;9.65;;;5.28;;
34236;SDS011;20501;45.956;13.632;2023-04-24T10:03:20;12.40;;;6.60;;
34236;SDS011;20501;45.956;13.632;2023-04-24T10:05:46;9.77;;;5.20;;
34236;SDS011;20501;45.956;13.632;2023-04-24T10:08:13;8.65;;;5.88;;
34236;SDS011;20501;45.956;13.632;2023-04-24T10:10:42;9.07;;;4.93;;
34236;SDS011;20501;45.956;13.632;2023-04-24T10:13:11;10.25;;;5.47;;
34236;SDS011;20501;45.956;13.632;2023-04-24T10:15:38;8.25;;;5.50;;
34236;SDS011;20501;45.956;13.632;2023-04-24T10:18:06;7.15;;;5.53;;
34236;SDS011;20501;45.956;13.632;2023-04-24T10:20:33;10.43;;;5.25;;
34236;SDS011;20501;45.956;13.632;2023-04-24T10:23:01;9.07;;;4.95;;
34236;SDS011;20501;45.956;13.632;2023-04-24T10:25:27;8.57;;;5.38;;
34236;SDS011;20501;45.956;13.632;2023-04-24T10:27:54;9.60;;;5.07;;
34236;SDS011;20501;45.956;13.632;2023-04-24T10:30:23;6.80;;;4.22;;
34236;SDS011;20501;45.956;13.632;2023-04-24T10:32:48;6.50;;;4.70;;
34236;SDS011;20501;45.956;13.632;2023-04-24T10:35:14;11.40;;;4.95;;
34236;SDS011;20501;45.956;13.632;2023-04-24T10:40:18;6.90;;;4.10;;
34236;SDS011;20501;45.956;13.632;2023-04-24T10:42:51;5.82;;;4.13;;
34236;SDS011;20501;45.956;13.632;2023-04-24T10:45:21;7.55;;;4.47;;
34236;SDS011;20501;45.956;13.632;2023-04-24T10:47:57;7.97;;;4.60;;
34236;SDS011;20501;45.956;13.632;2023-04-24T10:50:26;5.75;;;3.78;;
34236;SDS011;20501;45.956;13.632;2023-04-24T10:52:53;6.68;;;4.10;;
34236;SDS011;20501;45.956;13.632;2023-04-24T10:55:39;6.13;;;3.90;;
34236;SDS011;20501;45.956;13.632;2023-04-24T10:58:06;9.82;;;4.28;;
34236;SDS011;20501;45.956;13.632;2023-04-24T11:00:31;5.38;;;3.75;;
34236;SDS011;20501;45.956;13.632;2023-04-24T11:02:57;4.97;;;3.80;;
34236;SDS011;20501;45.956;13.632;2023-04-24T11:05:22;6.30;;;4.00;;
34236;SDS011;20501;45.956;13.632;2023-04-24T11:08:22;5.93;;;4.03;;
34236;SDS011;20501;45.956;13.632;2023-04-24T11:13:26;9.95;;;4.78;;
34236;SDS011;20501;45.956;13.632;2023-04-24T11:18:39;5.85;;;4.15;;
34236;SDS011;20501;45.956;13.632;2023-04-24T11:21:16;4.90;;;4.00;;
34236;SDS011;20501;45.956;13.632;2023-04-24T11:23:42;6.88;;;3.90;;
34236;SDS011;20501;45.956;13.632;2023-04-24T11:26:18;5.90;;;3.70;;
34236;SDS011;20501;45.956;13.632;2023-04-24T11:28:49;5.53;;;3.83;;
34236;SDS011;20501;45.956;13.632;2023-04-24T11:34:07;7.55;;;3.72;;
34236;SDS011;20501;45.956;13.632;2023-04-24T11:36:35;8.77;;;5.70;;
34236;SDS011;20501;45.956;13.632;2023-04-24T11:39:00;6.07;;;3.83;;
34236;SDS011;20501;45.956;13.632;2023-04-24T11:41:27;10.23;;;5.93;;
34236;SDS011;20501;45.956;13.632;2023-04-24T11:43:53;6.20;;;4.50;;
34236;SDS011;20501;45.956;13.632;2023-04-24T11:48:46;4.03;;;2.30;;
34236;SDS011;20501;45.956;13.632;2023-04-24T11:51:12;4.80;;;1.83;;
34236;SDS011;20501;45.956;13.632;2023-04-24T11:53:38;5.35;;;2.00;;
34236;SDS011;20501;45.956;13.632;2023-04-24T11:56:03;4.85;;;2.38;;
34236;SDS011;20501;45.956;13.632;2023-04-24T11:58:34;5.25;;;2.90;;
34236;SDS011;20501;45.956;13.632;2023-04-24T12:01:04;1.85;;;1.10;;
34236;SDS011;20501;45.956;13.632;2023-04-24T12:03:30;3.25;;;1.25;;
34236;SDS011;20501;45.956;13.632;2023-04-24T12:06:09;1.35;;;1.02;;
34236;SDS011;20501;45.956;13.632;2023-04-24T12:08:36;2.03;;;1.25;;
34236;SDS011;20501;45.956;13.632;2023-04-24T12:11:02;2.83;;;1.10;;
34236;SDS011;20501;45.956;13.632;2023-04-24T12:13:29;1.80;;;0.98;;
34236;SDS011;20501;45.956;13.632;2023-04-24T12:15:56;1.50;;;0.80;;
34236;SDS011;20501;45.956;13.632;2023-04-24T12:18:23;1.45;;;0.82;;
34236;SDS011;20501;45.956;13.632;2023-04-24T12:20:48;2.05;;;1.13;;
34236;SDS011;20501;45.956;13.632;2023-04-24T12:23:14;0.40;;;0.40;;
34236;SDS011;20501;45.956;13.632;2023-04-24T12:25:39;0.50;;;0.50;;
34236;SDS011;20501;45.956;13.632;2023-04-24T12:30:34;1.55;;;0.65;;
34236;SDS011;20501;45.956;13.632;2023-04-24T12:33:03;2.03;;;0.90;;
34236;SDS011;20501;45.956;13.632;2023-04-24T12:35:30;1.92;;;0.80;;
34236;SDS011;20501;45.956;13.632;2023-04-24T12:38:16;1.45;;;0.90;;
34236;SDS011;20501;45.956;13.632;2023-04-24T12:40:47;2.47;;;0.82;;
34236;SDS011;20501;45.956;13.632;2023-04-24T12:43:17;2.20;;;1.08;;
34236;SDS011;20501;45.956;13.632;2023-04-24T12:45:44;1.42;;;1.10;;
34236;SDS011;20501;45.956;13.632;2023-04-24T12:48:10;3.45;;;1.60;;
34236;SDS011;20501;45.956;13.632;2023-04-24T12:50:35;3.95;;;2.13;;
34236;SDS011;20501;45.956;13.632;2023-04-24T12:53:01;3.05;;;1.52;;
34236;SDS011;20501;45.956;13.632;2023-04-24T12:55:27;8.27;;;2.05;;
34236;SDS011;20501;45.956;13.632;2023-04-24T12:57:52;3.85;;;1.70;;
34236;SDS011;20501;45.956;13.632;2023-04-24T13:00:20;2.78;;;1.20;;
34236;SDS011;20501;45.956;13.632;2023-04-24T13:02:45;2.00;;;1.30;;
34236;SDS011;20501;45.956;13.632;2023-04-24T13:05:11;3.67;;;1.50;;
34236;SDS011;20501;45.956;13.632;2023-04-24T13:07:38;1.83;;;1.17;;
34236;SDS011;20501;45.956;13.632;2023-04-24T13:10:04;3.60;;;2.13;;
34236;SDS011;20501;45.956;13.632;2023-04-24T13:12:31;3.42;;;1.67;;
34236;SDS011;20501;45.956;13.632;2023-04-24T13:14:57;2.60;;;1.52;;
34236;SDS011;20501;45.956;13.632;2023-04-24T13:17:23;3.03;;;1.55;;
34236;SDS011;20501;45.956;13.632;2023-04-24T13:19:49;3.17;;;1.63;;
34236;SDS011;20501;45.956;13.632;2023-04-24T13:22:16;4.78;;;1.95;;
34236;SDS011;20501;45.956;13.632;2023-04-24T13:24:43;5.85;;;2.10;;
34236;SDS011;20501;45.956;13.632;2023-04-24T13:27:09;3.88;;;1.63;;
34236;SDS011;20501;45.956;13.632;2023-04-24T13:29:35;8.00;;;4.18;;
34236;SDS011;20501;45.956;13.632;2023-04-24T13:32:01;4.03;;;1.88;;
34236;SDS011;20501;45.956;13.632;2023-04-24T13:34:27;5.22;;;1.73;;
34236;SDS011;20501;45.956;13.632;2023-04-24T13:36:53;2.83;;;1.50;;
34236;SDS011;20501;45.956;13.632;2023-04-24T13:41:45;2.50;;;1.55;;
34236;SDS011;20501;45.956;13.632;2023-04-24T13:44:12;4.28;;;1.40;;
34236;SDS011;20501;45.956;13.632;2023-04-24T13:46:38;5.35;;;1.80;;
34236;SDS011;20501;45.956;13.632;2023-04-24T13:49:03;4.57;;;2.30;;
34236;SDS011;20501;45.956;13.632;2023-04-24T13:51:29;5.32;;;2.35;;
34236;SDS011;20501;45.956;13.632;2023-04-24T13:53:55;3.17;;;1.80;;
34236;SDS011;20501;45.956;13.632;2023-04-24T13:56:21;2.42;;;1.50;;
34236;SDS011;20501;45.956;13.632;2023-04-24T13:58:47;1.40;;;1.20;;
34236;SDS011;20501;45.956;13.632;2023-04-24T14:01:13;5.95;;;2.35;;
34236;SDS011;20501;45.956;13.632;2023-04-24T14:03:39;4.90;;;1.90;;
34236;SDS011;20501;45.956;13.632;2023-04-24T14:06:05;2.75;;;1.83;;
34236;SDS011;20501;45.956;13.632;2023-04-24T14:08:31;3.65;;;1.65;;
34236;SDS011;20501;45.956;13.632;2023-04-24T14:10:57;2.17;;;1.80;;
34236;SDS011;20501;45.956;13.632;2023-04-24T14:13:22;2.33;;;1.58;;
34236;SDS011;20501;45.956;13.632;2023-04-24T14:15:48;5.13;;;1.65;;
34236;SDS011;20501;45.956;13.632;2023-04-24T14:18:13;3.75;;;1.63;;
34236;SDS011;20501;45.956;13.632;2023-04-24T14:20:39;3.25;;;1.90;;
34236;SDS011;20501;45.956;13.632;2023-04-24T14:23:05;4.30;;;1.92;;
34236;SDS011;20501;45.956;13.632;2023-04-24T14:25:30;2.17;;;1.65;;
34236;SDS011;20501;45.956;13.632;2023-04-24T14:27:56;2.70;;;1.90;;
34236;SDS011;20501;45.956;13.632;2023-04-24T14:30:21;4.20;;;1.75;;
34236;SDS011;20501;45.956;13.632;2023-04-24T14:32:47;3.55;;;1.60;;
34236;SDS011;20501;45.956;13.632;2023-04-24T14:35:13;3.53;;;2.13;;
34236;SDS011;20501;45.956;13.632;2023-04-24T14:37:39;3.65;;;2.22;;
34236;SDS011;20501;45.956;13.632;2023-04-24T14:40:06;5.90;;;2.20;;
34236;SDS011;20501;45.956;13.632;2023-04-24T14:42:33;4.18;;;1.95;;
34236;SDS011;20501;45.956;13.632;2023-04-24T14:44:59;2.25;;;1.48;;
34236;SDS011;20501;45.956;13.632;2023-04-24T14:47:24;4.75;;;1.60;;
34236;SDS011;20501;45.956;13.632;2023-04-24T14:49:50;3.88;;;1.83;;
34236;SDS011;20501;45.956;13.632;2023-04-24T14:52:15;3.25;;;1.75;;